sensor_id;sensor_type;location;lat;lon;timestamp;P1;durP1;ratioP1;P2;durP2;ratioP2
53411;SDS011;39307;52.870;13.660;2023-09-19T00:00:43;6.38;;;2.20;;
53411;SDS011;39307;52.870;13.660;2023-09-19T00:03:10;6.35;;;2.10;;
53411;SDS011;39307;52.870;13.660;2023-09-19T00:05:36;6.05;;;2.20;;
53411;SDS011;39307;52.870;13.660;2023-09-19T00:08:03;5.43;;;1.90;;
53411;SDS011;39307;52.870;13.660;2023-09-19T00:10:30;6.38;;;2.38;;
53411;SDS011;39307;52.870;13.660;2023-09-19T00:12:58;5.95;;;2.17;;
53411;SDS011;39307;52.870;13.660;2023-09-19T00:15:24;5.78;;;2.28;;
53411;SDS011;39307;52.870;13.660;2023-09-19T00:17:51;5.90;;;2.28;;
53411;SDS011;39307;52.870;13.660;2023-09-19T00:20:18;6.20;;;2.15;;
53411;SDS011;39307;52.870;13.660;2023-09-19T00:22:44;5.32;;;2.10;;
53411;SDS011;39307;52.870;13.660;2023-09-19T00:25:10;5.10;;;2.03;;
53411;SDS011;39307;52.870;13.660;2023-09-19T00:27:38;5.65;;;2.17;;
53411;SDS011;39307;52.870;13.660;2023-09-19T00:30:04;5.47;;;2.00;;
53411;SDS011;39307;52.870;13.660;2023-09-19T00:32:31;4.32;;;1.92;;
53411;SDS011;39307;52.870;13.660;2023-09-19T00:34:58;5.32;;;1.90;;
53411;SDS011;39307;52.870;13.660;2023-09-19T00:37:24;8.27;;;1.95;;
53411;SDS011;39307;52.870;13.660;2023-09-19T00:39:50;5.25;;;1.88;;
53411;SDS011;39307;52.870;13.660;2023-09-19T00:42:19;6.88;;;2.00;;
53411;SDS011;39307;52.870;13.660;2023-09-19T00:44:46;5.07;;;1.80;;
53411;SDS011;39307;52.870;13.660;2023-09-19T00:47:13;6.17;;;2.17;;
53411;SDS011;39307;52.870;13.660;2023-09-19T00:49:39;6.75;;;2.20;;
53411;SDS011;39307;52.870;13.660;2023-09-19T00:52:06;6.18;;;2.10;;
53411;SDS011;39307;52.870;13.660;2023-09-19T00:54:33;5.82;;;1.92;;
53411;SDS011;39307;52.870;13.660;2023-09-19T00:57:00;5.63;;;2.20;;
53411;SDS011;39307;52.870;13.660;2023-09-19T00:59:27;6.25;;;2.10;;
53411;SDS011;39307;52.870;13.660;2023-09-19T01:01:54;4.57;;;1.90;;
53411;SDS011;39307;52.870;13.660;2023-09-19T01:04:21;4.78;;;1.90;;
53411;SDS011;39307;52.870;13.660;2023-09-19T01:06:49;5.20;;;2.25;;
53411;SDS011;39307;52.870;13.660;2023-09-19T01:09:15;4.43;;;1.90;;
53411;SDS011;39307;52.870;13.660;2023-09-19T01:11:42;6.90;;;2.40;;
53411;SDS011;39307;52.870;13.660;2023-09-19T01:14:15;6.45;;;1.90;;
53411;SDS011;39307;52.870;13.660;2023-09-19T01:17:03;8.98;;;2.53;;
53411;SDS011;39307;52.870;13.660;2023-09-19T01:19:53;6.22;;;2.30;;
53411;SDS011;39307;52.870;13.660;2023-09-19T01:22:36;5.57;;;2.10;;
53411;SDS011;39307;52.870;13.660;2023-09-19T01:25:20;8.10;;;2.00;;
53411;SDS011;39307;52.870;13.660;2023-09-19T01:30:46;5.32;;;1.95;;
53411;SDS011;39307;52.870;13.660;2023-09-19T01:33:17;4.65;;;2.10;;
53411;SDS011;39307;52.870;13.660;2023-09-19T01:35:43;6.50;;;2.23;;
53411;SDS011;39307;52.870;13.660;2023-09-19T01:38:10;6.53;;;2.20;;
53411;SDS011;39307;52.870;13.660;2023-09-19T01:40:41;6.65;;;2.10;;
53411;SDS011;39307;52.870;13.660;2023-09-19T01:43:09;7.35;;;2.17;;
53411;SDS011;39307;52.870;13.660;2023-09-19T01:48:32;4.13;;;1.83;;
53411;SDS011;39307;52.870;13.660;2023-09-19T01:51:10;4.57;;;1.90;;
53411;SDS011;39307;52.870;13.660;2023-09-19T01:53:45;5.32;;;1.98;;
53411;SDS011;39307;52.870;13.660;2023-09-19T01:56:41;7.63;;;2.40;;
53411;SDS011;39307;52.870;13.660;2023-09-19T01:59:21;5.27;;;1.90;;
53411;SDS011;39307;52.870;13.660;2023-09-19T02:01:54;7.07;;;2.38;;
53411;SDS011;39307;52.870;13.660;2023-09-19T02:04:21;4.28;;;1.90;;
53411;SDS011;39307;52.870;13.660;2023-09-19T02:06:47;4.63;;;1.77;;
53411;SDS011;39307;52.870;13.660;2023-09-19T02:09:14;4.90;;;1.80;;
53411;SDS011;39307;52.870;13.660;2023-09-19T02:11:40;5.18;;;1.90;;
53411;SDS011;39307;52.870;13.660;2023-09-19T02:14:06;7.67;;;2.03;;
53411;SDS011;39307;52.870;13.660;2023-09-19T02:16:33;6.93;;;2.08;;
53411;SDS011;39307;52.870;13.660;2023-09-19T02:19:00;4.53;;;1.85;;
53411;SDS011;39307;52.870;13.660;2023-09-19T02:21:26;6.43;;;2.07;;
53411;SDS011;39307;52.870;13.660;2023-09-19T02:23:52;6.05;;;2.05;;
53411;SDS011;39307;52.870;13.660;2023-09-19T02:26:18;5.80;;;1.80;;
53411;SDS011;39307;52.870;13.660;2023-09-19T02:28:45;4.88;;;1.60;;
53411;SDS011;39307;52.870;13.660;2023-09-19T02:31:11;5.85;;;2.13;;
53411;SDS011;39307;52.870;13.660;2023-09-19T02:33:37;5.45;;;1.70;;
53411;SDS011;39307;52.870;13.660;2023-09-19T02:36:03;5.65;;;1.80;;
53411;SDS011;39307;52.870;13.660;2023-09-19T02:38:30;6.25;;;1.95;;
53411;SDS011;39307;52.870;13.660;2023-09-19T02:40:56;5.25;;;1.95;;
53411;SDS011;39307;52.870;13.660;2023-09-19T02:43:22;5.82;;;2.10;;
53411;SDS011;39307;52.870;13.660;2023-09-19T02:45:49;5.05;;;2.15;;
53411;SDS011;39307;52.870;13.660;2023-09-19T02:48:19;6.03;;;2.15;;
53411;SDS011;39307;52.870;13.660;2023-09-19T02:50:45;7.33;;;1.97;;
53411;SDS011;39307;52.870;13.660;2023-09-19T02:53:15;5.22;;;1.95;;
53411;SDS011;39307;52.870;13.660;2023-09-19T02:55:41;5.57;;;2.13;;
53411;SDS011;39307;52.870;13.660;2023-09-19T02:58:08;4.80;;;1.80;;
53411;SDS011;39307;52.870;13.660;2023-09-19T03:00:34;7.13;;;2.17;;
53411;SDS011;39307;52.870;13.660;2023-09-19T03:03:00;6.88;;;2.10;;
53411;SDS011;39307;52.870;13.660;2023-09-19T03:05:27;5.80;;;2.20;;
53411;SDS011;39307;52.870;13.660;2023-09-19T03:07:53;6.25;;;2.33;;
53411;SDS011;39307;52.870;13.660;2023-09-19T03:10:20;7.05;;;2.13;;
53411;SDS011;39307;52.870;13.660;2023-09-19T03:12:49;4.77;;;2.20;;
53411;SDS011;39307;52.870;13.660;2023-09-19T03:15:16;8.18;;;2.40;;
53411;SDS011;39307;52.870;13.660;2023-09-19T03:17:45;4.65;;;2.13;;
53411;SDS011;39307;52.870;13.660;2023-09-19T03:20:13;5.18;;;2.33;;
53411;SDS011;39307;52.870;13.660;2023-09-19T03:22:40;7.70;;;2.22;;
53411;SDS011;39307;52.870;13.660;2023-09-19T03:25:06;5.22;;;2.05;;
53411;SDS011;39307;52.870;13.660;2023-09-19T03:27:33;9.48;;;2.10;;
53411;SDS011;39307;52.870;13.660;2023-09-19T03:30:00;6.45;;;2.45;;
53411;SDS011;39307;52.870;13.660;2023-09-19T03:32:27;7.60;;;2.70;;
53411;SDS011;39307;52.870;13.660;2023-09-19T03:34:53;6.60;;;2.38;;
53411;SDS011;39307;52.870;13.660;2023-09-19T03:37:19;4.80;;;2.00;;
53411;SDS011;39307;52.870;13.660;2023-09-19T03:39:45;6.20;;;2.40;;
53411;SDS011;39307;52.870;13.660;2023-09-19T03:42:11;5.90;;;2.40;;
53411;SDS011;39307;52.870;13.660;2023-09-19T03:44:38;7.15;;;2.28;;
53411;SDS011;39307;52.870;13.660;2023-09-19T03:47:04;6.80;;;2.10;;
53411;SDS011;39307;52.870;13.660;2023-09-19T03:49:30;5.95;;;2.05;;
53411;SDS011;39307;52.870;13.660;2023-09-19T03:51:56;4.70;;;1.67;;
53411;SDS011;39307;52.870;13.660;2023-09-19T03:54:22;5.13;;;2.25;;
53411;SDS011;39307;52.870;13.660;2023-09-19T03:56:49;5.60;;;1.95;;
53411;SDS011;39307;52.870;13.660;2023-09-19T03:59:15;4.18;;;1.85;;
53411;SDS011;39307;52.870;13.660;2023-09-19T04:01:41;4.75;;;1.60;;
53411;SDS011;39307;52.870;13.660;2023-09-19T04:04:07;4.70;;;1.80;;
53411;SDS011;39307;52.870;13.660;2023-09-19T04:06:34;7.45;;;1.85;;
53411;SDS011;39307;52.870;13.660;2023-09-19T04:09:01;3.57;;;1.43;;
53411;SDS011;39307;52.870;13.660;2023-09-19T04:11:28;3.35;;;1.40;;
53411;SDS011;39307;52.870;13.660;2023-09-19T04:13:54;3.33;;;1.10;;
53411;SDS011;39307;52.870;13.660;2023-09-19T04:16:21;4.38;;;1.23;;
53411;SDS011;39307;52.870;13.660;2023-09-19T04:18:47;4.18;;;1.20;;
53411;SDS011;39307;52.870;13.660;2023-09-19T04:21:13;2.88;;;1.10;;
53411;SDS011;39307;52.870;13.660;2023-09-19T04:23:39;3.30;;;1.30;;
53411;SDS011;39307;52.870;13.660;2023-09-19T04:26:06;3.92;;;1.30;;
53411;SDS011;39307;52.870;13.660;2023-09-19T04:28:32;4.57;;;1.20;;
53411;SDS011;39307;52.870;13.660;2023-09-19T04:30:58;3.13;;;1.25;;
53411;SDS011;39307;52.870;13.660;2023-09-19T04:33:25;3.17;;;1.10;;
53411;SDS011;39307;52.870;13.660;2023-09-19T04:35:51;3.80;;;1.42;;
53411;SDS011;39307;52.870;13.660;2023-09-19T04:38:18;3.87;;;1.40;;
53411;SDS011;39307;52.870;13.660;2023-09-19T04:40:45;4.80;;;1.10;;
53411;SDS011;39307;52.870;13.660;2023-09-19T04:43:11;4.93;;;1.30;;
53411;SDS011;39307;52.870;13.660;2023-09-19T04:45:38;4.38;;;1.20;;
53411;SDS011;39307;52.870;13.660;2023-09-19T04:48:05;3.35;;;1.20;;
53411;SDS011;39307;52.870;13.660;2023-09-19T04:50:31;3.20;;;1.23;;
53411;SDS011;39307;52.870;13.660;2023-09-19T04:52:58;2.97;;;1.20;;
53411;SDS011;39307;52.870;13.660;2023-09-19T04:55:24;5.18;;;1.40;;
53411;SDS011;39307;52.870;13.660;2023-09-19T04:57:50;3.70;;;1.30;;
53411;SDS011;39307;52.870;13.660;2023-09-19T05:00:17;2.65;;;1.17;;
53411;SDS011;39307;52.870;13.660;2023-09-19T05:02:45;3.50;;;1.33;;
53411;SDS011;39307;52.870;13.660;2023-09-19T05:05:15;3.03;;;1.38;;
53411;SDS011;39307;52.870;13.660;2023-09-19T05:07:41;4.55;;;1.42;;
53411;SDS011;39307;52.870;13.660;2023-09-19T05:10:08;4.43;;;1.50;;
53411;SDS011;39307;52.870;13.660;2023-09-19T05:12:34;3.75;;;1.25;;
53411;SDS011;39307;52.870;13.660;2023-09-19T05:15:04;3.13;;;1.50;;
53411;SDS011;39307;52.870;13.660;2023-09-19T05:17:31;4.97;;;1.58;;
53411;SDS011;39307;52.870;13.660;2023-09-19T05:19:57;4.95;;;1.50;;
53411;SDS011;39307;52.870;13.660;2023-09-19T05:22:26;2.65;;;1.30;;
53411;SDS011;39307;52.870;13.660;2023-09-19T05:24:53;4.90;;;1.67;;
53411;SDS011;39307;52.870;13.660;2023-09-19T05:27:19;5.35;;;1.58;;
53411;SDS011;39307;52.870;13.660;2023-09-19T05:29:45;4.72;;;1.60;;
53411;SDS011;39307;52.870;13.660;2023-09-19T05:32:11;3.60;;;1.63;;
53411;SDS011;39307;52.870;13.660;2023-09-19T05:34:38;3.42;;;1.60;;
53411;SDS011;39307;52.870;13.660;2023-09-19T05:37:04;4.35;;;1.80;;
53411;SDS011;39307;52.870;13.660;2023-09-19T05:39:31;5.00;;;1.90;;
53411;SDS011;39307;52.870;13.660;2023-09-19T05:41:57;4.60;;;1.65;;
53411;SDS011;39307;52.870;13.660;2023-09-19T05:44:23;7.53;;;2.10;;
53411;SDS011;39307;52.870;13.660;2023-09-19T05:46:49;5.50;;;2.13;;
53411;SDS011;39307;52.870;13.660;2023-09-19T05:49:16;6.15;;;2.05;;
53411;SDS011;39307;52.870;13.660;2023-09-19T05:51:42;5.18;;;1.80;;
53411;SDS011;39307;52.870;13.660;2023-09-19T05:54:08;5.90;;;2.30;;
53411;SDS011;39307;52.870;13.660;2023-09-19T05:56:34;4.47;;;1.85;;
53411;SDS011;39307;52.870;13.660;2023-09-19T05:59:00;4.10;;;1.90;;
53411;SDS011;39307;52.870;13.660;2023-09-19T06:01:27;6.40;;;2.20;;
53411;SDS011;39307;52.870;13.660;2023-09-19T06:03:53;4.40;;;1.80;;
53411;SDS011;39307;52.870;13.660;2023-09-19T06:06:19;6.00;;;2.20;;
53411;SDS011;39307;52.870;13.660;2023-09-19T06:08:45;6.50;;;2.00;;
53411;SDS011;39307;52.870;13.660;2023-09-19T06:11:11;5.70;;;2.25;;
53411;SDS011;39307;52.870;13.660;2023-09-19T06:13:37;5.27;;;2.00;;
53411;SDS011;39307;52.870;13.660;2023-09-19T06:16:04;5.65;;;2.35;;
53411;SDS011;39307;52.870;13.660;2023-09-19T06:18:31;4.22;;;2.05;;
53411;SDS011;39307;52.870;13.660;2023-09-19T06:20:57;5.75;;;2.33;;
53411;SDS011;39307;52.870;13.660;2023-09-19T06:23:23;6.25;;;2.00;;
53411;SDS011;39307;52.870;13.660;2023-09-19T06:25:50;7.20;;;2.50;;
53411;SDS011;39307;52.870;13.660;2023-09-19T06:28:16;6.38;;;2.38;;
53411;SDS011;39307;52.870;13.660;2023-09-19T06:30:42;6.32;;;2.30;;
53411;SDS011;39307;52.870;13.660;2023-09-19T06:33:08;5.35;;;2.17;;
53411;SDS011;39307;52.870;13.660;2023-09-19T06:35:34;6.25;;;2.25;;
53411;SDS011;39307;52.870;13.660;2023-09-19T06:38:04;4.65;;;2.35;;
53411;SDS011;39307;52.870;13.660;2023-09-19T06:40:30;6.05;;;2.33;;
53411;SDS011;39307;52.870;13.660;2023-09-19T06:42:57;6.72;;;2.20;;
53411;SDS011;39307;52.870;13.660;2023-09-19T06:45:23;5.47;;;2.25;;
53411;SDS011;39307;52.870;13.660;2023-09-19T06:47:50;4.18;;;1.98;;
53411;SDS011;39307;52.870;13.660;2023-09-19T06:50:20;5.95;;;2.63;;
53411;SDS011;39307;52.870;13.660;2023-09-19T06:52:47;5.50;;;2.10;;
53411;SDS011;39307;52.870;13.660;2023-09-19T06:55:14;6.15;;;2.03;;
53411;SDS011;39307;52.870;13.660;2023-09-19T06:57:41;5.78;;;2.20;;
53411;SDS011;39307;52.870;13.660;2023-09-19T07:00:08;6.65;;;2.20;;
53411;SDS011;39307;52.870;13.660;2023-09-19T07:02:34;5.68;;;2.40;;
53411;SDS011;39307;52.870;13.660;2023-09-19T07:05:01;7.17;;;2.20;;
53411;SDS011;39307;52.870;13.660;2023-09-19T07:07:27;6.60;;;2.23;;
53411;SDS011;39307;52.870;13.660;2023-09-19T07:09:53;7.95;;;2.40;;
53411;SDS011;39307;52.870;13.660;2023-09-19T07:12:19;6.03;;;1.88;;
53411;SDS011;39307;52.870;13.660;2023-09-19T07:14:46;5.87;;;2.10;;
53411;SDS011;39307;52.870;13.660;2023-09-19T07:17:12;5.40;;;2.00;;
53411;SDS011;39307;52.870;13.660;2023-09-19T07:19:38;7.05;;;2.20;;
53411;SDS011;39307;52.870;13.660;2023-09-19T07:22:04;7.25;;;2.08;;
53411;SDS011;39307;52.870;13.660;2023-09-19T07:24:30;5.85;;;2.20;;
53411;SDS011;39307;52.870;13.660;2023-09-19T07:26:57;5.97;;;2.30;;
53411;SDS011;39307;52.870;13.660;2023-09-19T07:29:22;5.10;;;1.93;;
53411;SDS011;39307;52.870;13.660;2023-09-19T07:31:49;5.40;;;2.13;;
53411;SDS011;39307;52.870;13.660;2023-09-19T07:34:15;7.18;;;2.00;;
53411;SDS011;39307;52.870;13.660;2023-09-19T07:36:41;7.00;;;1.80;;
53411;SDS011;39307;52.870;13.660;2023-09-19T07:39:07;6.00;;;2.05;;
53411;SDS011;39307;52.870;13.660;2023-09-19T07:41:33;5.72;;;1.90;;
53411;SDS011;39307;52.870;13.660;2023-09-19T07:44:00;6.10;;;2.00;;
53411;SDS011;39307;52.870;13.660;2023-09-19T07:46:26;7.13;;;2.30;;
53411;SDS011;39307;52.870;13.660;2023-09-19T07:48:52;5.45;;;1.80;;
53411;SDS011;39307;52.870;13.660;2023-09-19T07:51:19;6.03;;;2.30;;
53411;SDS011;39307;52.870;13.660;2023-09-19T07:53:45;5.57;;;2.00;;
53411;SDS011;39307;52.870;13.660;2023-09-19T07:56:11;5.60;;;2.13;;
53411;SDS011;39307;52.870;13.660;2023-09-19T07:58:40;4.68;;;1.85;;
53411;SDS011;39307;52.870;13.660;2023-09-19T08:01:07;6.83;;;2.00;;
53411;SDS011;39307;52.870;13.660;2023-09-19T08:03:34;6.10;;;2.30;;
53411;SDS011;39307;52.870;13.660;2023-09-19T08:06:01;7.22;;;2.10;;
53411;SDS011;39307;52.870;13.660;2023-09-19T08:08:28;10.05;;;2.30;;
53411;SDS011;39307;52.870;13.660;2023-09-19T08:10:54;6.50;;;2.03;;
53411;SDS011;39307;52.870;13.660;2023-09-19T08:13:24;6.57;;;2.10;;
53411;SDS011;39307;52.870;13.660;2023-09-19T08:15:51;4.88;;;1.98;;
53411;SDS011;39307;52.870;13.660;2023-09-19T08:18:17;6.87;;;2.20;;
53411;SDS011;39307;52.870;13.660;2023-09-19T08:20:49;5.20;;;1.98;;
53411;SDS011;39307;52.870;13.660;2023-09-19T08:23:17;6.88;;;2.22;;
53411;SDS011;39307;52.870;13.660;2023-09-19T08:25:44;5.43;;;1.77;;
53411;SDS011;39307;52.870;13.660;2023-09-19T08:28:10;6.75;;;2.17;;
53411;SDS011;39307;52.870;13.660;2023-09-19T08:30:36;7.65;;;1.77;;
53411;SDS011;39307;52.870;13.660;2023-09-19T08:33:02;6.32;;;1.88;;
53411;SDS011;39307;52.870;13.660;2023-09-19T08:35:28;8.45;;;2.10;;
53411;SDS011;39307;52.870;13.660;2023-09-19T08:37:55;5.60;;;2.00;;
53411;SDS011;39307;52.870;13.660;2023-09-19T08:40:21;7.00;;;1.77;;
53411;SDS011;39307;52.870;13.660;2023-09-19T08:42:50;5.53;;;1.90;;
53411;SDS011;39307;52.870;13.660;2023-09-19T08:45:17;6.93;;;1.88;;
53411;SDS011;39307;52.870;13.660;2023-09-19T08:47:50;5.57;;;1.70;;
53411;SDS011;39307;52.870;13.660;2023-09-19T08:50:33;6.05;;;2.10;;
53411;SDS011;39307;52.870;13.660;2023-09-19T08:53:10;6.68;;;1.73;;
53411;SDS011;39307;52.870;13.660;2023-09-19T08:55:42;7.10;;;1.90;;
53411;SDS011;39307;52.870;13.660;2023-09-19T08:58:12;7.13;;;2.00;;
53411;SDS011;39307;52.870;13.660;2023-09-19T09:00:42;5.68;;;1.80;;
53411;SDS011;39307;52.870;13.660;2023-09-19T09:03:14;8.18;;;1.98;;
53411;SDS011;39307;52.870;13.660;2023-09-19T09:05:41;5.88;;;1.88;;
53411;SDS011;39307;52.870;13.660;2023-09-19T09:08:09;7.30;;;2.05;;
53411;SDS011;39307;52.870;13.660;2023-09-19T09:10:36;8.55;;;1.70;;
53411;SDS011;39307;52.870;13.660;2023-09-19T09:13:03;4.75;;;1.80;;
53411;SDS011;39307;52.870;13.660;2023-09-19T09:15:30;4.45;;;1.70;;
53411;SDS011;39307;52.870;13.660;2023-09-19T09:18:01;6.72;;;2.03;;
53411;SDS011;39307;52.870;13.660;2023-09-19T09:20:29;6.15;;;2.05;;
53411;SDS011;39307;52.870;13.660;2023-09-19T09:22:55;8.20;;;2.55;;
53411;SDS011;39307;52.870;13.660;2023-09-19T09:25:22;6.70;;;2.10;;
53411;SDS011;39307;52.870;13.660;2023-09-19T09:28:08;6.25;;;2.25;;
53411;SDS011;39307;52.870;13.660;2023-09-19T09:30:35;6.10;;;2.13;;
53411;SDS011;39307;52.870;13.660;2023-09-19T09:33:09;5.65;;;2.20;;
53411;SDS011;39307;52.870;13.660;2023-09-19T09:35:35;6.22;;;2.20;;
53411;SDS011;39307;52.870;13.660;2023-09-19T09:38:03;6.32;;;2.28;;
53411;SDS011;39307;52.870;13.660;2023-09-19T09:40:39;5.82;;;2.25;;
53411;SDS011;39307;52.870;13.660;2023-09-19T09:43:29;7.18;;;2.53;;
53411;SDS011;39307;52.870;13.660;2023-09-19T09:48:57;6.35;;;2.30;;
53411;SDS011;39307;52.870;13.660;2023-09-19T09:51:31;7.85;;;2.30;;
53411;SDS011;39307;52.870;13.660;2023-09-19T09:54:13;8.18;;;2.42;;
53411;SDS011;39307;52.870;13.660;2023-09-19T09:56:53;6.70;;;2.45;;
53411;SDS011;39307;52.870;13.660;2023-09-19T09:59:20;5.93;;;2.33;;
53411;SDS011;39307;52.870;13.660;2023-09-19T10:01:47;7.43;;;2.40;;
53411;SDS011;39307;52.870;13.660;2023-09-19T10:04:15;6.80;;;2.50;;
53411;SDS011;39307;52.870;13.660;2023-09-19T10:06:54;8.67;;;2.50;;
53411;SDS011;39307;52.870;13.660;2023-09-19T10:09:20;8.57;;;2.67;;
53411;SDS011;39307;52.870;13.660;2023-09-19T10:11:48;7.20;;;2.40;;
53411;SDS011;39307;52.870;13.660;2023-09-19T10:14:29;6.63;;;2.63;;
53411;SDS011;39307;52.870;13.660;2023-09-19T10:16:58;6.97;;;2.50;;
53411;SDS011;39307;52.870;13.660;2023-09-19T10:19:41;6.37;;;2.03;;
53411;SDS011;39307;52.870;13.660;2023-09-19T10:22:13;7.82;;;2.47;;
53411;SDS011;39307;52.870;13.660;2023-09-19T10:24:41;6.00;;;2.30;;
53411;SDS011;39307;52.870;13.660;2023-09-19T10:27:11;9.05;;;2.55;;
53411;SDS011;39307;52.870;13.660;2023-09-19T10:29:39;6.65;;;2.20;;
53411;SDS011;39307;52.870;13.660;2023-09-19T10:32:06;5.68;;;2.33;;
53411;SDS011;39307;52.870;13.660;2023-09-19T10:34:33;7.22;;;2.30;;
53411;SDS011;39307;52.870;13.660;2023-09-19T10:37:02;7.15;;;2.50;;
53411;SDS011;39307;52.870;13.660;2023-09-19T10:39:29;6.88;;;2.30;;
53411;SDS011;39307;52.870;13.660;2023-09-19T10:41:57;6.60;;;2.45;;
53411;SDS011;39307;52.870;13.660;2023-09-19T10:44:28;5.90;;;2.60;;
53411;SDS011;39307;52.870;13.660;2023-09-19T10:46:58;7.88;;;2.72;;
53411;SDS011;39307;52.870;13.660;2023-09-19T10:49:24;7.70;;;2.53;;
53411;SDS011;39307;52.870;13.660;2023-09-19T10:51:54;6.70;;;2.63;;
53411;SDS011;39307;52.870;13.660;2023-09-19T10:54:31;6.90;;;2.25;;
53411;SDS011;39307;52.870;13.660;2023-09-19T10:56:59;6.70;;;2.30;;
53411;SDS011;39307;52.870;13.660;2023-09-19T10:59:26;7.05;;;2.20;;
53411;SDS011;39307;52.870;13.660;2023-09-19T11:01:54;6.13;;;2.17;;
53411;SDS011;39307;52.870;13.660;2023-09-19T11:06:59;7.43;;;2.78;;
53411;SDS011;39307;52.870;13.660;2023-09-19T11:09:43;6.50;;;2.40;;
53411;SDS011;39307;52.870;13.660;2023-09-19T11:14:55;7.57;;;2.45;;
53411;SDS011;39307;52.870;13.660;2023-09-19T11:30:33;4.93;;;2.10;;
53411;SDS011;39307;52.870;13.660;2023-09-19T11:33:21;6.05;;;2.15;;
53411;SDS011;39307;52.870;13.660;2023-09-19T11:36:08;8.07;;;2.10;;
53411;SDS011;39307;52.870;13.660;2023-09-19T11:43:51;17.13;;;2.90;;
53411;SDS011;39307;52.870;13.660;2023-09-19T11:49:18;6.65;;;2.22;;
53411;SDS011;39307;52.870;13.660;2023-09-19T11:51:51;8.47;;;2.27;;
53411;SDS011;39307;52.870;13.660;2023-09-19T11:54:18;6.83;;;2.13;;
53411;SDS011;39307;52.870;13.660;2023-09-19T11:56:44;8.87;;;2.30;;
53411;SDS011;39307;52.870;13.660;2023-09-19T11:59:11;7.10;;;2.27;;
53411;SDS011;39307;52.870;13.660;2023-09-19T12:01:51;6.38;;;2.05;;
53411;SDS011;39307;52.870;13.660;2023-09-19T12:04:21;7.13;;;2.30;;
53411;SDS011;39307;52.870;13.660;2023-09-19T12:07:10;6.23;;;2.20;;
53411;SDS011;39307;52.870;13.660;2023-09-19T12:09:39;9.88;;;2.65;;
53411;SDS011;39307;52.870;13.660;2023-09-19T12:12:05;5.47;;;2.30;;
53411;SDS011;39307;52.870;13.660;2023-09-19T12:14:32;8.20;;;2.33;;
53411;SDS011;39307;52.870;13.660;2023-09-19T12:16:58;8.35;;;2.30;;
53411;SDS011;39307;52.870;13.660;2023-09-19T12:19:24;6.90;;;2.17;;
53411;SDS011;39307;52.870;13.660;2023-09-19T12:21:54;5.15;;;2.17;;
53411;SDS011;39307;52.870;13.660;2023-09-19T12:24:25;7.15;;;2.00;;
53411;SDS011;39307;52.870;13.660;2023-09-19T12:26:52;6.88;;;2.13;;
53411;SDS011;39307;52.870;13.660;2023-09-19T12:29:19;6.18;;;2.17;;
53411;SDS011;39307;52.870;13.660;2023-09-19T12:31:50;6.50;;;2.13;;
53411;SDS011;39307;52.870;13.660;2023-09-19T12:34:21;7.45;;;1.95;;
53411;SDS011;39307;52.870;13.660;2023-09-19T12:36:48;6.25;;;2.00;;
53411;SDS011;39307;52.870;13.660;2023-09-19T12:39:24;7.50;;;2.30;;
53411;SDS011;39307;52.870;13.660;2023-09-19T12:41:50;6.90;;;2.10;;
53411;SDS011;39307;52.870;13.660;2023-09-19T12:44:17;5.50;;;1.90;;
53411;SDS011;39307;52.870;13.660;2023-09-19T12:46:44;8.07;;;2.05;;
53411;SDS011;39307;52.870;13.660;2023-09-19T12:49:17;6.63;;;1.85;;
53411;SDS011;39307;52.870;13.660;2023-09-19T12:51:45;6.40;;;1.80;;
53411;SDS011;39307;52.870;13.660;2023-09-19T12:54:12;6.88;;;1.95;;
53411;SDS011;39307;52.870;13.660;2023-09-19T12:56:41;7.10;;;2.00;;
53411;SDS011;39307;52.870;13.660;2023-09-19T12:59:09;12.98;;;2.58;;
53411;SDS011;39307;52.870;13.660;2023-09-19T13:01:37;10.20;;;2.28;;
53411;SDS011;39307;52.870;13.660;2023-09-19T13:04:13;7.53;;;2.00;;
53411;SDS011;39307;52.870;13.660;2023-09-19T13:06:44;7.35;;;2.20;;
53411;SDS011;39307;52.870;13.660;2023-09-19T13:09:14;5.63;;;1.98;;
53411;SDS011;39307;52.870;13.660;2023-09-19T13:11:42;17.95;;;3.20;;
53411;SDS011;39307;52.870;13.660;2023-09-19T13:14:15;8.25;;;1.70;;
53411;SDS011;39307;52.870;13.660;2023-09-19T13:17:01;8.55;;;2.03;;
53411;SDS011;39307;52.870;13.660;2023-09-19T13:25:10;31.83;;;4.50;;
53411;SDS011;39307;52.870;13.660;2023-09-19T13:27:40;7.85;;;2.00;;
53411;SDS011;39307;52.870;13.660;2023-09-19T13:30:07;9.70;;;2.15;;
53411;SDS011;39307;52.870;13.660;2023-09-19T13:32:34;7.80;;;1.85;;
53411;SDS011;39307;52.870;13.660;2023-09-19T13:35:00;12.50;;;2.42;;
53411;SDS011;39307;52.870;13.660;2023-09-19T13:37:27;8.15;;;1.80;;
53411;SDS011;39307;52.870;13.660;2023-09-19T13:39:53;7.13;;;1.90;;
53411;SDS011;39307;52.870;13.660;2023-09-19T13:42:19;7.65;;;1.85;;
53411;SDS011;39307;52.870;13.660;2023-09-19T13:44:45;6.45;;;1.60;;
53411;SDS011;39307;52.870;13.660;2023-09-19T13:47:12;6.47;;;1.70;;
53411;SDS011;39307;52.870;13.660;2023-09-19T13:49:38;6.50;;;1.67;;
53411;SDS011;39307;52.870;13.660;2023-09-19T13:52:04;9.70;;;2.08;;
53411;SDS011;39307;52.870;13.660;2023-09-19T13:54:31;6.18;;;1.80;;
53411;SDS011;39307;52.870;13.660;2023-09-19T13:56:57;7.32;;;1.92;;
53411;SDS011;39307;52.870;13.660;2023-09-19T13:59:23;5.10;;;1.63;;
53411;SDS011;39307;52.870;13.660;2023-09-19T14:01:50;4.68;;;1.70;;
53411;SDS011;39307;52.870;13.660;2023-09-19T14:04:16;6.13;;;1.60;;
53411;SDS011;39307;52.870;13.660;2023-09-19T14:06:42;6.17;;;2.03;;
53411;SDS011;39307;52.870;13.660;2023-09-19T14:09:09;6.05;;;1.73;;
53411;SDS011;39307;52.870;13.660;2023-09-19T14:11:35;7.95;;;1.80;;
53411;SDS011;39307;52.870;13.660;2023-09-19T14:14:01;6.63;;;1.63;;
53411;SDS011;39307;52.870;13.660;2023-09-19T14:16:28;7.15;;;1.58;;
53411;SDS011;39307;52.870;13.660;2023-09-19T14:18:54;7.50;;;1.80;;
53411;SDS011;39307;52.870;13.660;2023-09-19T14:21:20;5.82;;;1.58;;
53411;SDS011;39307;52.870;13.660;2023-09-19T14:23:46;7.10;;;1.63;;
53411;SDS011;39307;52.870;13.660;2023-09-19T14:26:13;6.78;;;1.85;;
53411;SDS011;39307;52.870;13.660;2023-09-19T14:28:39;5.68;;;1.90;;
53411;SDS011;39307;52.870;13.660;2023-09-19T14:31:09;7.63;;;1.73;;
53411;SDS011;39307;52.870;13.660;2023-09-19T14:33:36;7.72;;;1.95;;
53411;SDS011;39307;52.870;13.660;2023-09-19T14:36:06;6.53;;;1.60;;
53411;SDS011;39307;52.870;13.660;2023-09-19T14:38:37;7.65;;;2.03;;
53411;SDS011;39307;52.870;13.660;2023-09-19T14:41:04;6.35;;;1.98;;
53411;SDS011;39307;52.870;13.660;2023-09-19T14:43:32;6.00;;;1.50;;
53411;SDS011;39307;52.870;13.660;2023-09-19T14:46:04;6.18;;;1.60;;
53411;SDS011;39307;52.870;13.660;2023-09-19T14:48:31;4.53;;;1.52;;
53411;SDS011;39307;52.870;13.660;2023-09-19T14:51:01;5.50;;;1.70;;
53411;SDS011;39307;52.870;13.660;2023-09-19T14:53:29;7.10;;;1.98;;
53411;SDS011;39307;52.870;13.660;2023-09-19T14:55:56;6.50;;;1.60;;
53411;SDS011;39307;52.870;13.660;2023-09-19T14:58:25;4.75;;;1.58;;
53411;SDS011;39307;52.870;13.660;2023-09-19T15:00:52;7.32;;;1.75;;
53411;SDS011;39307;52.870;13.660;2023-09-19T15:03:18;6.90;;;1.83;;
53411;SDS011;39307;52.870;13.660;2023-09-19T15:05:44;5.93;;;1.80;;
53411;SDS011;39307;52.870;13.660;2023-09-19T15:08:10;6.32;;;1.90;;
53411;SDS011;39307;52.870;13.660;2023-09-19T15:10:36;7.78;;;1.85;;
53411;SDS011;39307;52.870;13.660;2023-09-19T15:13:03;6.82;;;1.88;;
53411;SDS011;39307;52.870;13.660;2023-09-19T15:15:31;5.70;;;1.77;;
53411;SDS011;39307;52.870;13.660;2023-09-19T15:17:57;5.55;;;1.70;;
53411;SDS011;39307;52.870;13.660;2023-09-19T15:20:23;5.32;;;1.80;;